createdAt,value
2022-11-07T00:00:49.936Z,12.90
2022-11-07T00:05:55.011Z,13.00
2022-11-07T00:10:58.874Z,12.70
2022-11-07T00:16:03.299Z,13.00
2022-11-07T00:21:08.152Z,12.70
2022-11-07T00:26:13.733Z,12.80
2022-11-07T00:31:17.069Z,13.00
2022-11-07T00:36:22.589Z,12.90
2022-11-07T00:41:25.190Z,13.00
2022-11-07T00:46:27.389Z,13.00
2022-11-07T00:51:29.874Z,13.20
2022-11-07T00:56:32.171Z,13.00
2022-11-07T01:01:35.556Z,12.80
2022-11-07T01:06:40.471Z,13.10
2022-11-07T01:11:43.782Z,13.00
2022-11-07T01:16:46.020Z,13.10
2022-11-07T01:21:48.337Z,13.20
2022-11-07T01:26:51.929Z,13.10
2022-11-07T01:31:54.220Z,13.20
2022-11-07T01:36:56.485Z,13.10
2022-11-07T01:41:58.927Z,13.20
2022-11-07T01:47:11.309Z,13.20
2022-11-07T01:52:21.331Z,13.20
2022-11-07T01:57:31.421Z,13.20
2022-11-07T02:02:34.327Z,13.20
2022-11-07T02:07:38.416Z,13.30
2022-11-07T02:12:41.299Z,13.30
2022-11-07T02:17:43.584Z,13.50
2022-11-07T02:23:04.395Z,13.50
2022-11-07T02:28:10.269Z,13.30
2022-11-07T02:33:23.019Z,13.20
2022-11-07T02:38:31.175Z,12.90
2022-11-07T02:43:37.130Z,12.90
2022-11-07T02:49:00.357Z,13.00
2022-11-07T02:54:02.643Z,12.80
2022-11-07T02:59:04.865Z,12.70
2022-11-07T03:04:07.165Z,13.00
2022-11-07T03:09:09.453Z,13.40
2022-11-07T03:14:11.654Z,13.60
2022-11-07T03:19:13.878Z,13.70
2022-11-07T03:24:16.124Z,13.80
2022-11-07T03:29:18.339Z,13.90
2022-11-07T03:34:20.541Z,13.90
2022-11-07T03:39:25.787Z,14.00
2022-11-07T03:44:28.662Z,13.80
2022-11-07T03:49:30.933Z,14.00
2022-11-07T03:54:33.149Z,14.00
2022-11-07T03:59:35.470Z,14.10
2022-11-07T04:04:38.115Z,14.20
2022-11-07T04:09:40.371Z,14.20
2022-11-07T04:15:02.485Z,14.10
2022-11-07T04:20:06.042Z,14.20
2022-11-07T04:25:08.781Z,14.30
2022-11-07T04:30:24.933Z,14.10
2022-11-07T04:35:31.072Z,14.20
2022-11-07T04:40:33.787Z,14.10
2022-11-07T04:45:39.408Z,14.10
2022-11-07T04:50:42.195Z,14.10
2022-11-07T04:55:44.946Z,14.10
2022-11-07T05:00:47.239Z,14.30
2022-11-07T05:05:49.503Z,14.20
2022-11-07T05:10:51.747Z,14.20
2022-11-07T05:15:54.137Z,14.30
2022-11-07T05:20:56.457Z,14.10
2022-11-07T05:25:58.735Z,14.30
2022-11-07T05:31:03.359Z,14.30
2022-11-07T05:36:09.584Z,14.40
2022-11-07T05:41:13.390Z,14.50
2022-11-07T05:46:15.604Z,14.50
2022-11-07T05:51:17.818Z,14.50
2022-11-07T05:56:20.022Z,14.60
2022-11-07T06:01:22.251Z,14.60
2022-11-07T06:06:24.466Z,14.60
2022-11-07T06:11:26.786Z,14.50
2022-11-07T06:16:28.994Z,14.70
2022-11-07T06:21:31.323Z,14.70
2022-11-07T06:26:33.532Z,14.70
2022-11-07T06:31:35.724Z,14.80
2022-11-07T06:36:37.916Z,14.90
2022-11-07T06:41:40.488Z,14.60
2022-11-07T06:46:43.118Z,14.70
2022-11-07T06:51:47.778Z,14.90
2022-11-07T06:56:50.298Z,15.10
2022-11-07T07:01:52.556Z,15.20
2022-11-07T07:06:55.022Z,15.20
2022-11-07T07:11:57.237Z,15.30
2022-11-07T07:16:59.540Z,15.30
2022-11-07T07:22:01.849Z,15.40
2022-11-07T07:27:04.217Z,15.40
2022-11-07T07:32:06.442Z,15.20
2022-11-07T07:37:09.403Z,15.30
2022-11-07T07:42:11.734Z,15.10
2022-11-07T07:47:13.995Z,15.30
2022-11-07T07:52:16.241Z,15.40
2022-11-07T07:57:18.729Z,15.60
2022-11-07T08:02:21.135Z,16.10
2022-11-07T08:07:23.422Z,16.80
2022-11-07T08:12:25.666Z,16.70
2022-11-07T08:17:27.881Z,16.80
2022-11-07T08:22:30.088Z,16.40
2022-11-07T08:27:32.498Z,16.20
2022-11-07T08:32:35.006Z,16.20
2022-11-07T08:37:37.681Z,16.30
2022-11-07T08:42:39.914Z,16.30
2022-11-07T08:47:42.152Z,16.20
2022-11-07T08:52:44.367Z,16.40
2022-11-07T08:57:46.581Z,16.40
2022-11-07T09:08:11.007Z,16.60
2022-11-07T09:13:15.275Z,16.50
2022-11-07T09:18:17.738Z,16.40
2022-11-07T09:23:35.605Z,16.50
2022-11-07T09:28:37.957Z,16.80
2022-11-07T09:33:40.253Z,16.90
2022-11-07T09:38:42.514Z,17.00
2022-11-07T09:43:56.727Z,17.00
2022-11-07T09:49:15.313Z,17.10
2022-11-07T09:54:22.213Z,16.90
2022-11-07T09:59:33.919Z,17.00
2022-11-07T10:04:36.170Z,17.00
2022-11-07T10:09:46.533Z,17.00
2022-11-07T10:14:52.914Z,16.90
2022-11-07T10:20:24.287Z,16.40
2022-11-07T10:25:33.495Z,16.00
2022-11-07T10:30:35.913Z,16.10
2022-11-07T10:35:45.130Z,16.40
2022-11-07T10:40:47.644Z,16.80
2022-11-07T10:45:50.902Z,16.90
2022-11-07T10:50:54.284Z,17.00
2022-11-07T10:55:56.638Z,17.10
2022-11-07T11:00:58.919Z,17.20
2022-11-07T11:06:12.744Z,17.30
2022-11-07T11:11:16.177Z,17.50
2022-11-07T11:16:21.311Z,17.60
2022-11-07T11:21:24.555Z,17.90
2022-11-07T11:26:37.695Z,18.10
2022-11-07T11:31:51.836Z,18.40
2022-11-07T11:37:01.467Z,18.20
2022-11-07T11:42:05.108Z,18.20
2022-11-07T11:47:20.770Z,18.10
2022-11-07T11:52:25.862Z,18.30
2022-11-07T11:57:40.851Z,18.30
2022-11-07T12:02:57.813Z,18.20
2022-11-07T12:08:04.197Z,18.40
2022-11-07T12:13:46.120Z,18.40
2022-11-07T12:19:06.040Z,18.60
2022-11-07T12:24:19.960Z,18.50
2022-11-07T12:29:42.167Z,18.60
2022-11-07T12:35:04.274Z,18.50
2022-11-07T12:40:10.688Z,18.40
2022-11-07T12:45:35.954Z,18.20
2022-11-07T12:50:59.034Z,18.10
2022-11-07T12:56:04.751Z,17.90
2022-11-07T13:01:07.920Z,17.80
2022-11-07T13:06:35.570Z,17.90
2022-11-07T13:11:43.713Z,18.00
2022-11-07T13:17:27.828Z,18.10
2022-11-07T13:22:33.257Z,18.20
2022-11-07T13:27:37.835Z,18.10
2022-11-07T13:32:41.699Z,18.00
2022-11-07T13:37:48.072Z,17.80
2022-11-07T13:42:56.323Z,17.70
2022-11-07T13:48:03.493Z,17.70
2022-11-07T13:53:13.168Z,17.60
2022-11-07T13:58:17.572Z,17.30
2022-11-07T14:03:27.480Z,17.30
2022-11-07T14:08:33.170Z,17.10
2022-11-07T14:13:41.184Z,17.10
2022-11-07T14:18:48.734Z,17.10
2022-11-07T14:23:51.133Z,17.00
2022-11-07T14:28:54.059Z,17.00
2022-11-07T14:34:01.038Z,16.90
2022-11-07T14:39:12.734Z,16.90
2022-11-07T14:44:22.913Z,16.80
2022-11-07T14:49:34.520Z,16.80
2022-11-07T14:54:39.999Z,16.70
2022-11-07T14:59:42.727Z,16.50
2022-11-07T15:04:46.785Z,16.40
2022-11-07T15:09:50.289Z,16.30
2022-11-07T15:15:06.919Z,16.30
2022-11-07T15:20:21.783Z,16.10
2022-11-07T15:25:25.196Z,16.00
2022-11-07T15:30:33.336Z,15.90
2022-11-07T15:35:44.023Z,15.80
2022-11-07T15:40:47.820Z,15.70
2022-11-07T15:45:52.664Z,15.60
2022-11-07T15:50:55.058Z,15.40
2022-11-07T15:56:01.449Z,15.20
2022-11-07T16:01:03.779Z,15.10
2022-11-07T16:06:17.797Z,14.80
2022-11-07T16:11:20.168Z,14.50
2022-11-07T16:16:34.150Z,14.20
2022-11-07T16:21:36.443Z,14.00
2022-11-07T16:26:39.750Z,13.60
2022-11-07T16:31:42.587Z,13.40
2022-11-07T16:36:47.067Z,13.40
2022-11-07T16:41:50.524Z,13.20
2022-11-07T16:46:55.759Z,13.20
2022-11-07T16:51:58.060Z,13.20
2022-11-07T16:57:01.797Z,13.10
2022-11-07T17:02:17.812Z,13.00
2022-11-07T17:07:23.913Z,13.10
2022-11-07T17:12:26.161Z,12.80
2022-11-07T17:17:28.418Z,12.60
2022-11-07T17:22:30.630Z,12.60
2022-11-07T17:27:32.825Z,12.60
2022-11-07T17:32:35.075Z,12.50
2022-11-07T17:37:37.892Z,12.40
2022-11-07T17:42:40.514Z,12.20
2022-11-07T17:47:42.737Z,12.20
2022-11-07T17:52:45.407Z,12.00
2022-11-07T17:57:48.183Z,12.00
2022-11-07T18:02:52.305Z,11.80
2022-11-07T18:07:54.882Z,11.70
2022-11-07T18:12:57.715Z,11.60
2022-11-07T18:17:59.927Z,11.40
2022-11-07T18:23:02.183Z,11.40
2022-11-07T18:28:04.721Z,11.60
2022-11-07T18:33:06.940Z,11.90
2022-11-07T18:38:09.435Z,12.20
2022-11-07T18:43:12.024Z,12.30
2022-11-07T18:48:15.056Z,12.60
2022-11-07T18:53:18.354Z,12.60
2022-11-07T18:58:20.712Z,12.60
2022-11-07T19:03:23.130Z,12.70
2022-11-07T19:08:25.428Z,12.70
2022-11-07T19:13:27.651Z,12.70
2022-11-07T19:18:29.851Z,12.70
2022-11-07T19:23:32.318Z,12.90
2022-11-07T19:28:36.297Z,13.10
2022-11-07T19:33:39.921Z,13.10
2022-11-07T19:38:42.512Z,13.20
2022-11-07T19:43:49.877Z,13.20
2022-11-07T19:48:55.153Z,13.10
2022-11-07T19:53:59.184Z,13.10
2022-11-07T19:59:01.564Z,13.00
2022-11-07T20:04:04.200Z,13.00
2022-11-07T20:09:09.293Z,12.90
2022-11-07T20:14:12.474Z,12.90
2022-11-07T20:19:14.827Z,12.90
2022-11-07T20:24:17.098Z,12.80
2022-11-07T20:29:19.396Z,12.80
2022-11-07T20:34:21.688Z,12.80
2022-11-07T20:39:23.916Z,12.70
2022-11-07T20:44:28.274Z,12.70
2022-11-07T20:49:30.482Z,12.70
2022-11-07T20:54:33.441Z,12.70
2022-11-07T20:59:35.759Z,12.70
2022-11-07T21:04:56.347Z,12.70
2022-11-07T21:10:00.270Z,12.70
2022-11-07T21:15:02.450Z,12.60
2022-11-07T21:20:05.703Z,12.60
2022-11-07T21:25:08.439Z,12.60
2022-11-07T21:30:10.998Z,12.60
2022-11-07T21:35:14.326Z,12.60
2022-11-07T21:40:16.528Z,12.60
2022-11-07T21:45:18.778Z,12.60
2022-11-07T21:50:43.412Z,12.60
2022-11-07T21:55:43.248Z,12.60
2022-11-07T22:00:45.539Z,12.60
2022-11-07T22:05:48.519Z,12.60
2022-11-07T22:10:50.742Z,12.60
2022-11-07T22:16:01.051Z,12.50
2022-11-07T22:21:05.252Z,12.50
2022-11-07T22:26:12.478Z,12.50
2022-11-07T22:31:22.995Z,12.40
2022-11-07T22:36:25.301Z,12.40
2022-11-07T22:41:29.466Z,12.30
2022-11-07T22:46:32.020Z,12.30
2022-11-07T22:51:35.526Z,12.20
2022-11-07T22:56:37.923Z,12.20
2022-11-07T23:01:42.286Z,12.20
2022-11-07T23:06:45.111Z,12.30
2022-11-07T23:11:48.630Z,12.30
2022-11-07T23:16:53.260Z,12.30
2022-11-07T23:21:56.693Z,12.30
2022-11-07T23:26:59.268Z,12.30
2022-11-07T23:32:01.492Z,12.30
2022-11-07T23:37:04.123Z,12.30
2022-11-07T23:42:06.548Z,12.30
2022-11-07T23:47:29.443Z,12.30
2022-11-07T23:52:31.658Z,12.30
2022-11-07T23:57:55.476Z,12.30
